createdAt,value
2019-01-11T00:02:04.001Z,8.90
2019-01-11T00:03:03.902Z,10.90
2019-01-11T00:05:07.911Z,12.10
2019-01-11T00:06:07.812Z,9.90
2019-01-11T00:08:11.822Z,10.60
2019-01-11T00:09:11.714Z,13.40
2019-01-11T00:11:15.672Z,11.30
2019-01-11T00:12:15.633Z,10.40
2019-01-11T00:14:19.641Z,10.70
2019-01-11T00:15:19.533Z,10.60
2019-01-11T00:17:23.483Z,8.80
2019-01-11T00:18:23.452Z,9.70
2019-01-11T00:20:27.573Z,10.70
2019-01-11T00:21:27.461Z,10.70
2019-01-11T00:23:31.589Z,8.60
2019-01-11T00:24:31.486Z,8.60
2019-01-11T00:26:35.503Z,9.20
2019-01-11T00:27:35.392Z,9.40
2019-01-11T00:29:39.424Z,9.10
2019-01-11T00:30:39.311Z,9.20
2019-01-11T00:32:32.274Z,9.40
2019-01-11T00:33:32.164Z,8.60
2019-01-11T00:35:36.182Z,8.70
2019-01-11T00:36:36.072Z,9.50
2019-01-11T00:38:40.092Z,9.60
2019-01-11T00:39:39.980Z,8.70
2019-01-11T00:41:44.004Z,9.50
2019-01-11T00:42:43.903Z,9.00
2019-01-11T00:44:47.852Z,11.40
2019-01-11T00:45:47.816Z,10.10
2019-01-11T00:47:51.930Z,7.60
2019-01-11T00:48:51.877Z,7.60
2019-01-11T00:50:55.941Z,8.90
2019-01-11T00:51:55.834Z,9.40
2019-01-11T00:53:59.964Z,11.00
2019-01-11T00:54:59.851Z,9.40
2019-01-11T00:57:03.983Z,9.00
2019-01-11T00:58:03.874Z,9.60
2019-01-11T01:00:08.003Z,9.70
2019-01-11T01:01:07.882Z,9.90
2019-01-11T01:03:00.955Z,9.90
2019-01-11T01:04:00.842Z,10.50
2019-01-11T01:06:04.894Z,11.00
2019-01-11T01:07:04.851Z,9.80
2019-01-11T01:09:08.973Z,10.40
2019-01-11T01:10:08.862Z,9.80
2019-01-11T01:12:13.003Z,9.80
2019-01-11T01:13:12.885Z,12.10
2019-01-11T01:15:17.007Z,13.00
2019-01-11T01:16:16.893Z,10.50
2019-01-11T01:18:20.963Z,10.50
2019-01-11T01:19:20.995Z,12.00
2019-01-11T01:21:25.131Z,12.30
2019-01-11T01:22:25.016Z,12.80
2019-01-11T01:24:29.198Z,13.60
2019-01-11T01:25:28.943Z,10.70
2019-01-11T01:27:33.171Z,11.50
2019-01-11T01:28:32.952Z,11.70
2019-01-11T01:30:37.182Z,11.60
2019-01-11T01:31:36.983Z,13.10
2019-01-11T01:33:41.203Z,11.70
2019-01-11T01:34:40.992Z,12.60
2019-01-11T01:36:45.213Z,11.90
2019-01-11T01:37:45.003Z,11.40
2019-01-11T01:39:49.232Z,11.20
2019-01-11T01:40:49.012Z,11.60
2019-01-11T01:42:42.180Z,12.20
2019-01-11T01:43:41.963Z,11.90
2019-01-11T01:45:46.193Z,11.30
2019-01-11T01:46:45.983Z,11.00
2019-01-11T01:48:50.213Z,10.80
2019-01-11T01:49:50.182Z,11.30
2019-01-11T01:51:54.231Z,11.00
2019-01-11T01:52:54.011Z,11.30
2019-01-11T01:54:58.074Z,11.70
2019-01-11T01:55:58.033Z,11.30
2019-01-11T01:58:02.251Z,10.60
2019-01-11T01:59:02.046Z,10.70
2019-01-11T02:01:06.099Z,10.40
2019-01-11T02:02:06.241Z,10.90
2019-01-11T02:04:16.984Z,10.10
2019-01-11T02:05:10.073Z,11.60
2019-01-11T02:07:14.133Z,11.10
2019-01-11T02:08:14.273Z,11.90
2019-01-11T02:10:18.324Z,10.70
2019-01-11T02:11:18.284Z,10.90
2019-01-11T02:13:11.179Z,11.60
2019-01-11T02:14:11.112Z,11.50
2019-01-11T02:16:15.136Z,12.70
2019-01-11T02:17:15.177Z,11.00
2019-01-11T02:19:19.121Z,12.00
2019-01-11T02:20:19.015Z,11.10
2019-01-11T02:22:23.884Z,12.40
2019-01-11T02:23:23.906Z,11.10
2019-01-11T02:25:27.853Z,11.90
2019-01-11T02:26:27.744Z,11.60
2019-01-11T02:28:32.700Z,12.90
2019-01-11T02:29:32.585Z,12.10
2019-01-11T02:31:36.593Z,12.40
2019-01-11T02:32:36.493Z,12.80
2019-01-11T02:34:41.427Z,12.80
2019-01-11T02:35:41.323Z,13.10
2019-01-11T02:37:45.332Z,13.50
2019-01-11T02:38:45.233Z,14.10
2019-01-11T02:40:49.245Z,14.40
2019-01-11T02:41:49.144Z,14.60
2019-01-11T02:43:53.153Z,15.30
2019-01-11T02:44:53.053Z,15.70
2019-01-11T02:46:58.093Z,16.20
2019-01-11T02:47:58.002Z,15.80
2019-01-11T02:50:03.947Z,16.20
2019-01-11T02:51:01.901Z,17.00
2019-01-11T02:52:56.398Z,16.30
2019-01-11T02:53:56.297Z,17.30
2019-01-11T02:56:00.248Z,17.40
2019-01-11T02:57:00.273Z,18.20
2019-01-11T02:59:05.233Z,18.30
2019-01-11T03:00:04.115Z,18.30
2019-01-11T03:02:09.604Z,17.80
2019-01-11T03:03:09.624Z,18.00
2019-01-11T03:05:13.678Z,17.70
2019-01-11T03:06:13.522Z,17.50
2019-01-11T03:08:17.581Z,17.20
2019-01-11T03:09:17.484Z,17.70
2019-01-11T03:11:21.426Z,17.10
2019-01-11T03:12:21.383Z,17.20
2019-01-11T03:14:25.393Z,16.90
2019-01-11T03:15:25.294Z,17.30
2019-01-11T03:17:29.253Z,17.60
2019-01-11T03:18:29.283Z,18.30
2019-01-11T03:20:33.236Z,17.80
2019-01-11T03:21:33.130Z,18.30
2019-01-11T03:23:37.065Z,18.90
2019-01-11T03:24:37.094Z,18.20
2019-01-11T03:26:42.065Z,17.50
2019-01-11T03:27:41.953Z,17.60
2019-01-11T03:29:46.992Z,17.70
2019-01-11T03:30:46.895Z,17.80
2019-01-11T03:32:39.847Z,17.40
2019-01-11T03:33:39.782Z,18.60
2019-01-11T03:35:43.754Z,16.70
2019-01-11T03:36:43.654Z,17.80
2019-01-11T03:38:47.602Z,18.30
2019-01-11T03:39:47.632Z,18.20
2019-01-11T03:41:52.605Z,17.50
2019-01-11T03:42:52.492Z,18.70
2019-01-11T03:44:56.451Z,17.70
2019-01-11T03:45:56.472Z,18.70
2019-01-11T03:48:00.939Z,19.00
2019-01-11T03:49:00.893Z,18.60
2019-01-11T03:51:05.862Z,18.10
2019-01-11T03:52:05.764Z,18.50
2019-01-11T03:54:10.233Z,18.90
2019-01-11T03:55:10.180Z,18.30
2019-01-11T03:57:14.131Z,19.40
2019-01-11T03:58:14.162Z,19.70
2019-01-11T04:00:18.052Z,19.00
2019-01-11T04:01:18.075Z,18.70
2019-01-11T04:03:10.951Z,18.80
2019-01-11T04:04:10.850Z,19.80
2019-01-11T04:06:14.873Z,19.80
2019-01-11T04:07:14.764Z,18.80
2019-01-11T04:09:19.804Z,19.50
2019-01-11T04:10:19.702Z,19.70
2019-01-11T04:12:23.652Z,19.50
2019-01-11T04:13:30.352Z,19.50
2019-01-11T04:15:27.627Z,19.60
2019-01-11T04:16:27.581Z,19.60
2019-01-11T04:18:31.567Z,19.30
2019-01-11T04:19:31.434Z,19.80
2019-01-11T04:21:35.392Z,21.00
2019-01-11T04:22:35.352Z,19.80
2019-01-11T04:24:39.521Z,21.30
2019-01-11T04:25:39.314Z,19.70
2019-01-11T04:27:43.568Z,20.60
2019-01-11T04:28:43.324Z,21.70
2019-01-11T04:30:48.574Z,20.80
2019-01-11T04:31:48.363Z,21.60
2019-01-11T04:33:52.423Z,23.10
2019-01-11T04:34:52.380Z,22.00
2019-01-11T04:36:57.631Z,21.60
2019-01-11T04:37:57.600Z,22.40
2019-01-11T04:40:01.652Z,23.70
2019-01-11T04:41:01.438Z,22.30
2019-01-11T04:42:54.606Z,22.50
2019-01-11T04:43:54.405Z,22.90
2019-01-11T04:45:59.646Z,23.80
2019-01-11T04:46:59.425Z,26.80
2019-01-11T04:49:04.513Z,24.20
2019-01-11T04:50:09.333Z,25.30
2019-01-11T04:52:08.698Z,25.30
2019-01-11T04:53:08.487Z,26.20
2019-01-11T04:55:12.545Z,26.00
2019-01-11T04:56:12.673Z,26.70
2019-01-11T04:58:16.734Z,25.00
2019-01-11T04:59:16.517Z,26.30
2019-01-11T05:01:20.745Z,26.50
2019-01-11T05:02:20.522Z,26.10
2019-01-11T05:04:25.781Z,27.20
2019-01-11T05:05:25.566Z,25.90
2019-01-11T05:07:30.822Z,27.00
2019-01-11T05:08:30.608Z,27.50
2019-01-11T05:10:34.666Z,28.50
2019-01-11T05:11:34.617Z,30.30
2019-01-11T05:13:38.850Z,30.70
2019-01-11T05:14:38.635Z,29.10
2019-01-11T05:16:42.764Z,31.20
2019-01-11T05:17:42.642Z,29.30
2019-01-11T05:19:46.771Z,30.90
2019-01-11T05:20:46.662Z,32.40
2019-01-11T05:22:39.754Z,30.40
2019-01-11T05:23:39.613Z,32.40
2019-01-11T05:25:43.685Z,31.40
2019-01-11T05:26:43.634Z,32.60
2019-01-11T05:28:48.680Z,32.30
2019-01-11T05:29:48.610Z,35.20
2019-01-11T05:31:52.593Z,32.10
2019-01-11T05:32:52.490Z,34.50
2019-01-11T05:34:56.611Z,36.70
2019-01-11T05:35:56.494Z,34.40
2019-01-11T05:38:01.543Z,36.10
2019-01-11T05:39:00.424Z,38.00
2019-01-11T05:41:04.533Z,37.50
2019-01-11T05:42:04.426Z,37.40
2019-01-11T05:44:08.553Z,36.40
2019-01-11T05:45:08.445Z,39.00
2019-01-11T05:47:12.563Z,44.80
2019-01-11T05:48:12.452Z,52.20
2019-01-11T05:50:23.908Z,42.10
2019-01-11T05:51:17.903Z,41.90
2019-01-11T05:53:11.896Z,42.60
2019-01-11T05:54:11.853Z,40.60
2019-01-11T05:56:15.905Z,42.80
2019-01-11T05:57:15.800Z,43.30
2019-01-11T05:59:19.846Z,43.80
2019-01-11T06:00:19.886Z,43.60
2019-01-11T06:02:24.042Z,43.80
2019-01-11T06:03:23.841Z,43.40
2019-01-11T06:05:28.775Z,41.00
2019-01-11T06:06:28.654Z,44.80
2019-01-11T06:08:32.782Z,42.50
2019-01-11T06:09:32.673Z,41.40
2019-01-11T06:11:36.748Z,44.50
2019-01-11T06:12:36.765Z,43.40
2019-01-11T06:14:40.819Z,44.10
2019-01-11T06:15:40.785Z,44.80
2019-01-11T06:17:44.930Z,42.50
2019-01-11T06:18:44.715Z,44.70
2019-01-11T06:20:48.775Z,47.10
2019-01-11T06:21:48.813Z,44.60
2019-01-11T06:23:52.951Z,45.00
2019-01-11T06:24:52.744Z,48.20
2019-01-11T06:26:56.873Z,44.80
2019-01-11T06:27:56.664Z,48.10
2019-01-11T06:30:01.925Z,46.40
2019-01-11T06:31:01.698Z,49.60
2019-01-11T06:32:54.886Z,51.50
2019-01-11T06:33:54.658Z,48.80
2019-01-11T06:35:58.711Z,47.20
2019-01-11T06:36:58.844Z,47.20
2019-01-11T06:39:02.892Z,49.70
2019-01-11T06:40:02.681Z,48.50
2019-01-11T06:42:06.754Z,50.40
2019-01-11T06:43:06.876Z,49.40
2019-01-11T06:45:10.973Z,49.80
2019-01-11T06:46:10.713Z,52.50
2019-01-11T06:48:15.794Z,56.90
2019-01-11T06:49:15.752Z,51.10
2019-01-11T06:51:20.023Z,53.40
2019-01-11T06:52:19.764Z,52.50
2019-01-11T06:54:23.994Z,51.50
2019-01-11T06:55:23.782Z,54.10
2019-01-11T06:57:28.003Z,55.90
2019-01-11T06:58:27.792Z,54.90
2019-01-11T07:00:32.026Z,57.80
2019-01-11T07:01:31.818Z,53.20
2019-01-11T07:03:36.038Z,52.40
2019-01-11T07:04:35.825Z,51.60
2019-01-11T07:06:39.883Z,51.70
2019-01-11T07:07:40.033Z,48.40
2019-01-11T07:09:44.063Z,55.30
2019-01-11T07:10:43.866Z,52.50
2019-01-11T07:12:37.021Z,53.20
2019-01-11T07:13:36.813Z,54.20
2019-01-11T07:15:40.866Z,54.00
2019-01-11T07:16:40.845Z,52.90
2019-01-11T07:18:45.057Z,52.60
2019-01-11T07:19:44.841Z,54.40
2019-01-11T07:21:50.097Z,52.20
2019-01-11T07:22:49.884Z,52.80
2019-01-11T07:24:54.105Z,50.40
2019-01-11T07:25:53.895Z,51.30
2019-01-11T07:27:57.951Z,50.80
2019-01-11T07:28:57.997Z,51.60
2019-01-11T07:31:02.037Z,46.90
2019-01-11T07:32:02.014Z,46.30
2019-01-11T07:34:07.088Z,48.80
2019-01-11T07:35:06.965Z,44.90
2019-01-11T07:37:11.955Z,46.30
2019-01-11T07:38:11.906Z,46.20
2019-01-11T07:40:15.865Z,45.60
2019-01-11T07:41:15.897Z,45.20
2019-01-11T07:43:08.723Z,42.20
2019-01-11T07:44:08.754Z,40.30
2019-01-11T07:46:12.682Z,39.80
2019-01-11T07:47:12.598Z,44.30
2019-01-11T07:49:22.983Z,40.80
2019-01-11T07:50:16.501Z,38.50
2019-01-11T07:52:20.625Z,39.10
2019-01-11T07:53:20.503Z,41.60
2019-01-11T07:55:25.558Z,41.40
2019-01-11T07:56:25.444Z,41.60
2019-01-11T07:58:29.562Z,38.90
2019-01-11T07:59:29.464Z,38.80
2019-01-11T08:01:33.594Z,37.60
2019-01-11T08:02:33.472Z,37.10
2019-01-11T08:04:37.612Z,34.60
2019-01-11T08:05:37.495Z,36.10
2019-01-11T08:07:41.611Z,34.90
2019-01-11T08:08:41.505Z,34.90
2019-01-11T08:10:47.261Z,33.40
2019-01-11T08:11:47.154Z,32.90
2019-01-11T08:13:51.292Z,32.50
2019-01-11T08:14:51.172Z,32.10
2019-01-11T08:16:55.293Z,33.30
2019-01-11T08:17:55.182Z,30.60
2019-01-11T08:19:59.203Z,33.20
2019-01-11T08:20:59.105Z,33.00
2019-01-11T08:22:52.062Z,32.20
2019-01-11T08:23:51.955Z,33.60
2019-01-11T08:25:55.903Z,32.80
2019-01-11T08:26:55.877Z,32.60
2019-01-11T08:29:00.915Z,32.70
2019-01-11T08:30:00.806Z,34.20
2019-01-11T08:32:04.812Z,33.30
2019-01-11T08:33:04.713Z,32.30
2019-01-11T08:35:08.736Z,30.20
2019-01-11T08:36:08.636Z,32.10
2019-01-11T08:38:12.644Z,31.80
2019-01-11T08:39:12.543Z,31.50
2019-01-11T08:41:17.589Z,33.20
2019-01-11T08:42:17.556Z,32.70
2019-01-11T08:44:22.523Z,34.50
2019-01-11T08:45:22.412Z,33.40
2019-01-11T08:47:26.434Z,33.30
2019-01-11T08:48:26.321Z,32.60
2019-01-11T08:50:30.348Z,32.50
2019-01-11T08:51:30.245Z,34.00
2019-01-11T08:53:35.214Z,33.60
2019-01-11T08:54:34.228Z,33.10
2019-01-11T08:56:40.222Z,33.00
2019-01-11T08:57:39.080Z,37.20
2019-01-11T08:59:43.101Z,32.90
2019-01-11T09:00:42.996Z,35.00
2019-01-11T09:02:35.972Z,34.90
2019-01-11T09:03:35.852Z,35.40
2019-01-11T09:05:39.874Z,37.40
2019-01-11T09:06:39.761Z,37.10
2019-01-11T09:08:43.796Z,35.80
2019-01-11T09:09:43.752Z,39.40
2019-01-11T09:11:47.701Z,40.20
2019-01-11T09:12:47.596Z,38.90
2019-01-11T09:14:52.577Z,42.90
2019-01-11T09:15:52.535Z,43.10
2019-01-11T09:17:56.541Z,44.70
2019-01-11T09:18:56.430Z,42.20
2019-01-11T09:21:00.463Z,46.80
2019-01-11T09:22:00.358Z,45.80
2019-01-11T09:24:04.373Z,47.30
2019-01-11T09:25:04.270Z,47.60
2019-01-11T09:27:08.236Z,48.70
2019-01-11T09:28:08.253Z,49.00
2019-01-11T09:30:14.256Z,50.90
2019-01-11T09:31:13.181Z,49.80
2019-01-11T09:33:07.104Z,50.60
2019-01-11T09:34:06.990Z,50.80
2019-01-11T09:36:11.012Z,50.90
2019-01-11T09:37:10.903Z,55.70
2019-01-11T09:39:14.864Z,52.80
2019-01-11T09:40:14.884Z,51.90
2019-01-11T09:42:19.284Z,59.50
2019-01-11T09:43:19.314Z,55.30
2019-01-11T09:45:23.262Z,54.40
2019-01-11T09:46:23.164Z,59.00
2019-01-11T09:48:27.171Z,57.20
2019-01-11T09:49:27.074Z,59.00
2019-01-11T09:51:31.024Z,58.80
2019-01-11T09:52:30.988Z,62.80
2019-01-11T09:54:34.992Z,61.20
2019-01-11T09:55:34.885Z,64.20
2019-01-11T09:57:38.913Z,61.40
2019-01-11T09:58:38.807Z,63.60
2019-01-11T10:00:43.139Z,66.00
2019-01-11T10:01:42.724Z,66.80
2019-01-11T10:03:47.754Z,65.80
2019-01-11T10:04:47.655Z,63.60
2019-01-11T10:06:51.677Z,71.00
2019-01-11T10:07:51.576Z,66.20
2019-01-11T10:09:55.523Z,65.60
2019-01-11T10:10:55.542Z,68.70
2019-01-11T10:12:48.434Z,64.80
2019-01-11T10:13:48.335Z,68.40
2019-01-11T10:15:52.342Z,65.40
2019-01-11T10:16:52.234Z,65.50
2019-01-11T10:18:56.255Z,69.50
2019-01-11T10:19:56.224Z,69.20
2019-01-11T10:22:00.173Z,65.80
2019-01-11T10:23:00.075Z,65.10
2019-01-11T10:25:04.036Z,69.70
2019-01-11T10:26:03.984Z,66.70
2019-01-11T10:28:08.009Z,66.40
2019-01-11T10:29:07.894Z,69.30
2019-01-11T10:31:11.902Z,64.80
2019-01-11T10:32:11.805Z,63.60
2019-01-11T10:34:15.753Z,67.20
2019-01-11T10:35:15.785Z,67.00
2019-01-11T10:37:19.674Z,72.90
2019-01-11T10:38:19.706Z,70.20
2019-01-11T10:40:24.664Z,72.50
2019-01-11T10:41:24.645Z,77.20
2019-01-11T10:43:29.614Z,75.00
2019-01-11T10:44:29.507Z,74.50
2019-01-11T10:46:33.453Z,70.40
2019-01-11T10:47:33.414Z,72.80
2019-01-11T10:49:37.434Z,71.80
2019-01-11T10:50:37.323Z,72.80
2019-01-11T10:51:37.407Z,75.90
2019-01-11T10:52:37.280Z,79.80
2019-01-11T10:53:37.321Z,73.70
2019-01-11T10:54:37.215Z,70.90
2019-01-11T10:55:37.234Z,69.70
2019-01-11T10:56:37.146Z,74.30
2019-01-11T10:57:37.124Z,74.80
2019-01-11T10:58:37.091Z,73.20
2019-01-11T10:59:37.160Z,73.60
2019-01-11T11:00:37.026Z,74.30
2019-01-11T11:01:37.066Z,73.40
2019-01-11T11:02:37.995Z,69.90
2019-01-11T11:03:36.944Z,77.50
2019-01-11T11:04:36.995Z,75.10
2019-01-11T11:05:36.887Z,76.10
2019-01-11T11:06:36.898Z,71.60
2019-01-11T11:07:36.822Z,73.60
2019-01-11T11:08:36.802Z,75.30
2019-01-11T11:09:36.754Z,85.50
2019-01-11T11:10:36.836Z,78.10
2019-01-11T11:11:36.708Z,75.00
2019-01-11T11:12:36.737Z,81.00
2019-01-11T11:13:36.645Z,80.20
2019-01-11T11:14:36.646Z,80.20
2019-01-11T11:15:36.583Z,77.60
2019-01-11T11:16:36.677Z,76.70
2019-01-11T11:17:36.532Z,79.70
2019-01-11T11:18:36.493Z,76.50
2019-01-11T11:19:36.474Z,68.50
2019-01-11T11:20:36.486Z,70.10
2019-01-11T11:21:36.417Z,73.10
2019-01-11T11:22:36.395Z,73.50
2019-01-11T11:23:36.363Z,77.30
2019-01-11T11:24:36.324Z,82.10
2019-01-11T11:25:36.327Z,76.70
2019-01-11T11:26:36.274Z,74.10
2019-01-11T11:27:36.335Z,74.00
2019-01-11T11:28:36.202Z,72.00
2019-01-11T11:29:36.184Z,76.30
2019-01-11T11:30:36.146Z,74.80
2019-01-11T11:31:36.179Z,75.70
2019-01-11T11:32:36.094Z,78.10
2019-01-11T11:33:36.180Z,78.90
2019-01-11T11:34:36.035Z,79.60
2019-01-11T11:35:36.004Z,75.20
2019-01-11T11:36:35.984Z,74.90
2019-01-11T11:37:35.950Z,77.50
2019-01-11T11:38:36.006Z,79.50
2019-01-11T11:39:35.895Z,82.80
2019-01-11T11:40:35.856Z,79.30
2019-01-11T11:41:35.823Z,83.30
2019-01-11T11:42:35.823Z,85.80
2019-01-11T11:43:35.765Z,76.70
2019-01-11T11:44:35.833Z,75.60
2019-01-11T11:45:35.755Z,78.80
2019-01-11T11:46:35.697Z,82.60
2019-01-11T11:47:35.754Z,78.30
2019-01-11T11:48:35.623Z,82.50
2019-01-11T11:49:35.676Z,80.20
2019-01-11T11:50:35.565Z,80.80
2019-01-11T11:51:41.066Z,82.70
2019-01-11T11:52:35.595Z,87.00
2019-01-11T11:53:35.474Z,80.10
2019-01-11T11:54:35.496Z,84.40
2019-01-11T11:55:35.427Z,78.70
2019-01-11T11:56:35.392Z,81.00
2019-01-11T11:57:35.365Z,79.50
2019-01-11T11:58:35.437Z,82.90
2019-01-11T11:59:35.302Z,79.10
2019-01-11T12:00:35.335Z,75.20
2019-01-11T12:01:35.243Z,77.40
2019-01-11T12:02:35.244Z,81.70
2019-01-11T12:03:35.196Z,78.40
2019-01-11T12:04:35.274Z,73.60
2019-01-11T12:05:35.134Z,74.60
2019-01-11T12:06:35.173Z,77.80
2019-01-11T12:07:35.085Z,72.20
2019-01-11T12:08:35.093Z,74.50
2019-01-11T12:09:35.015Z,77.70
2019-01-11T12:10:35.015Z,76.20
2019-01-11T12:11:34.954Z,77.40
2019-01-11T12:12:34.934Z,69.90
2019-01-11T12:13:34.908Z,70.10
2019-01-11T12:14:34.926Z,71.60
2019-01-11T12:15:34.849Z,75.10
2019-01-11T12:16:34.844Z,74.80
2019-01-11T12:17:36.056Z,71.60
2019-01-11T12:18:34.854Z,65.50
2019-01-11T12:19:34.736Z,71.20
2019-01-11T12:20:34.764Z,64.80
2019-01-11T12:21:34.664Z,64.20
2019-01-11T12:22:34.684Z,61.90
2019-01-11T12:23:34.694Z,60.50
2019-01-11T12:24:34.611Z,62.10
2019-01-11T12:25:34.605Z,57.00
2019-01-11T12:26:34.524Z,59.80
2019-01-11T12:27:34.612Z,59.30
2019-01-11T12:28:34.473Z,56.50
2019-01-11T12:29:34.454Z,58.10
2019-01-11T12:30:34.438Z,61.30
2019-01-11T12:31:34.384Z,60.60
2019-01-11T12:32:34.442Z,59.60
2019-01-11T12:33:34.334Z,59.00
2019-01-11T12:34:34.293Z,62.00
2019-01-11T12:35:34.377Z,63.70
2019-01-11T12:36:34.258Z,55.90
2019-01-11T12:37:34.274Z,60.40
2019-01-11T12:38:34.184Z,67.90
2019-01-11T12:39:34.166Z,63.70
2019-01-11T12:40:34.123Z,66.20
2019-01-11T12:41:34.214Z,67.30
2019-01-11T12:42:34.077Z,72.50
2019-01-11T12:43:34.115Z,67.70
2019-01-11T12:44:34.014Z,70.00
2019-01-11T12:45:34.034Z,72.60
2019-01-11T12:46:33.964Z,71.70
2019-01-11T12:47:34.953Z,65.50
2019-01-11T12:48:33.893Z,66.70
2019-01-11T12:49:33.950Z,72.90
2019-01-11T12:50:33.856Z,73.20
2019-01-11T12:51:33.812Z,66.10
2019-01-11T12:52:33.863Z,75.20
2019-01-11T12:53:33.763Z,69.10
2019-01-11T12:54:34.806Z,66.50
2019-01-11T12:55:33.783Z,61.10
2019-01-11T12:56:33.668Z,63.50
2019-01-11T12:57:33.694Z,66.10
2019-01-11T12:58:33.630Z,65.40
2019-01-11T12:59:33.602Z,63.50
2019-01-11T13:00:33.553Z,67.70
2019-01-11T13:01:33.524Z,62.00
2019-01-11T13:02:33.535Z,62.80
2019-01-11T13:03:33.474Z,58.70
2019-01-11T13:04:33.533Z,60.70
2019-01-11T13:05:33.424Z,55.60
2019-01-11T13:06:33.383Z,56.10
2019-01-11T13:07:33.363Z,57.30
2019-01-11T13:08:33.364Z,52.20
2019-01-11T13:09:33.297Z,49.70
2019-01-11T13:10:33.379Z,48.90
2019-01-11T13:11:33.284Z,47.80
2019-01-11T13:12:33.211Z,46.70
2019-01-11T13:13:33.304Z,41.30
2019-01-11T13:14:33.152Z,40.60
2019-01-11T13:15:33.201Z,38.20
2019-01-11T13:16:33.212Z,36.50
2019-01-11T13:17:33.071Z,34.90
2019-01-11T13:18:33.124Z,35.30
2019-01-11T13:19:33.012Z,34.60
2019-01-11T13:20:33.034Z,36.80
2019-01-11T13:21:32.960Z,32.50
2019-01-11T13:22:32.941Z,32.00
2019-01-11T13:23:32.902Z,28.60
2019-01-11T13:24:32.965Z,28.40
2019-01-11T13:25:32.858Z,25.30
2019-01-11T13:26:32.891Z,23.70
2019-01-11T13:27:32.882Z,23.20
2019-01-11T13:28:32.774Z,25.70
2019-01-11T13:29:32.806Z,22.80
2019-01-11T13:30:32.711Z,22.70
2019-01-11T13:31:32.707Z,19.70
2019-01-11T13:32:32.711Z,18.90
2019-01-11T13:33:32.620Z,20.20
2019-01-11T13:34:32.871Z,22.00
2019-01-11T13:35:32.561Z,20.30
2019-01-11T13:36:32.756Z,20.00
2019-01-11T13:37:32.518Z,19.00
2019-01-11T13:38:32.479Z,19.70
2019-01-11T13:39:32.663Z,21.10
2019-01-11T13:40:32.437Z,20.00
2019-01-11T13:41:32.582Z,18.70
2019-01-11T13:42:32.375Z,19.30
2019-01-11T13:43:32.343Z,19.20
2019-01-11T13:44:32.496Z,20.80
2019-01-11T13:45:32.291Z,20.10
2019-01-11T13:46:32.292Z,14.40
2019-01-11T13:47:33.208Z,19.60
2019-01-11T13:48:32.230Z,16.30
2019-01-11T13:49:32.185Z,17.50
2019-01-11T13:50:32.223Z,18.20
2019-01-11T13:51:32.133Z,20.30
2019-01-11T13:52:32.141Z,16.80
2019-01-11T13:53:32.074Z,16.40
2019-01-11T13:54:32.043Z,17.00
2019-01-11T13:55:32.051Z,17.30
2019-01-11T13:56:31.984Z,18.90
2019-01-11T13:57:32.073Z,16.70
2019-01-11T13:58:31.931Z,17.40
2019-01-11T13:59:31.900Z,18.00
2019-01-11T14:00:31.874Z,16.40
2019-01-11T14:01:31.891Z,18.20
2019-01-11T14:02:31.825Z,16.70
2019-01-11T14:03:31.912Z,16.50
2019-01-11T14:04:31.764Z,19.00
2019-01-11T14:05:31.820Z,16.20
2019-01-11T14:06:31.701Z,16.90
2019-01-11T14:07:31.748Z,17.60
2019-01-11T14:08:31.663Z,16.10
2019-01-11T14:09:31.742Z,14.60
2019-01-11T14:10:31.652Z,16.00
2019-01-11T14:11:31.585Z,16.20
2019-01-11T14:12:35.150Z,16.50
2019-01-11T14:13:31.522Z,15.70
2019-01-11T14:14:31.595Z,15.70
2019-01-11T14:15:31.583Z,15.60
2019-01-11T14:16:31.432Z,17.10
2019-01-11T14:17:31.494Z,17.00
2019-01-11T14:18:31.381Z,15.90
2019-01-11T14:19:31.401Z,19.00
2019-01-11T14:20:31.324Z,17.50
2019-01-11T14:21:31.290Z,15.00
2019-01-11T14:22:31.323Z,17.40
2019-01-11T14:23:31.243Z,18.70
2019-01-11T14:24:31.240Z,18.70
2019-01-11T14:25:31.182Z,18.10
2019-01-11T14:26:31.161Z,18.00
2019-01-11T14:27:31.163Z,16.10
2019-01-11T14:28:31.102Z,17.40
2019-01-11T14:29:31.171Z,19.00
2019-01-11T14:30:31.052Z,18.60
2019-01-11T14:31:31.123Z,17.80
2019-01-11T14:32:30.997Z,16.80
2019-01-11T14:33:31.006Z,16.40
2019-01-11T14:34:30.934Z,16.20
2019-01-11T14:35:31.025Z,15.40
2019-01-11T14:36:30.880Z,14.40
2019-01-11T14:37:32.371Z,16.40
2019-01-11T14:38:30.934Z,15.80
2019-01-11T14:39:30.804Z,17.90
2019-01-11T14:40:30.844Z,14.20
2019-01-11T14:41:30.742Z,18.60
2019-01-11T14:42:30.719Z,15.70
2019-01-11T14:43:30.692Z,12.40
2019-01-11T14:44:30.775Z,16.70
2019-01-11T14:45:30.634Z,14.90
2019-01-11T14:46:30.684Z,14.40
2019-01-11T14:47:30.583Z,15.20
2019-01-11T14:48:30.570Z,14.30
2019-01-11T14:49:30.597Z,15.00
2019-01-11T14:50:30.503Z,15.70
2019-01-11T14:51:30.530Z,15.70
2019-01-11T14:52:30.445Z,16.00
2019-01-11T14:53:30.410Z,15.50
2019-01-11T14:54:30.391Z,15.30
2019-01-11T14:55:30.432Z,16.60
2019-01-11T14:56:30.333Z,16.20
2019-01-11T14:57:30.343Z,16.30
2019-01-11T14:58:30.283Z,16.00
2019-01-11T14:59:30.253Z,16.90
2019-01-11T15:00:30.263Z,14.00
2019-01-11T15:01:30.203Z,14.80
2019-01-11T15:02:30.299Z,14.80
2019-01-11T15:03:30.143Z,16.60
2019-01-11T15:04:30.153Z,13.40
2019-01-11T15:05:30.201Z,15.90
2019-01-11T15:06:30.067Z,16.30
2019-01-11T15:07:30.125Z,16.70
2019-01-11T15:08:30.004Z,14.00
2019-01-11T15:09:29.984Z,16.40
2019-01-11T15:10:29.953Z,13.10
2019-01-11T15:11:30.033Z,15.70
2019-01-11T15:12:29.894Z,15.90
2019-01-11T15:13:29.942Z,14.50
2019-01-11T15:14:29.846Z,17.70
2019-01-11T15:15:29.818Z,14.70
2019-01-11T15:16:29.866Z,20.60
2019-01-11T15:17:29.774Z,18.00
2019-01-11T15:18:29.775Z,15.20
2019-01-11T15:19:29.704Z,19.30
2019-01-11T15:20:29.688Z,15.50
2019-01-11T15:21:29.652Z,18.20
2019-01-11T15:22:29.717Z,13.90
2019-01-11T15:23:29.592Z,17.60
2019-01-11T15:24:29.734Z,16.20
2019-01-11T15:25:29.542Z,13.60
2019-01-11T15:26:29.514Z,13.60
2019-01-11T15:27:29.638Z,18.60
2019-01-11T15:28:29.463Z,14.90
2019-01-11T15:29:29.553Z,14.70
2019-01-11T15:30:29.404Z,17.70
2019-01-11T15:31:29.373Z,15.60
2019-01-11T15:32:29.356Z,13.30
2019-01-11T15:33:29.476Z,14.80
2019-01-11T15:34:29.304Z,15.40
2019-01-11T15:35:29.397Z,14.90
2019-01-11T15:36:29.244Z,15.20
2019-01-11T15:37:29.219Z,14.70
2019-01-11T15:38:29.315Z,16.40
2019-01-11T15:39:29.155Z,13.00
2019-01-11T15:40:29.314Z,14.20
2019-01-11T15:41:29.107Z,11.90
2019-01-11T15:42:29.085Z,13.30
2019-01-11T15:43:29.047Z,15.90
2019-01-11T15:44:29.160Z,13.50
2019-01-11T15:45:28.998Z,12.40
2019-01-11T15:46:29.156Z,15.70
2019-01-11T15:47:28.946Z,12.80
2019-01-11T15:48:28.904Z,13.60
2019-01-11T15:49:28.889Z,12.70
2019-01-11T15:50:28.985Z,11.30
2019-01-11T15:51:28.828Z,10.00
2019-01-11T15:52:33.267Z,9.50
2019-01-11T15:53:28.905Z,12.10
2019-01-11T15:54:28.748Z,11.30
2019-01-11T15:55:28.813Z,11.20
2019-01-11T15:56:28.700Z,13.80
2019-01-11T15:57:28.723Z,10.70
2019-01-11T15:58:28.635Z,10.90
2019-01-11T15:59:28.618Z,10.70
2019-01-11T16:00:28.645Z,11.50
2019-01-11T16:01:28.565Z,10.80
2019-01-11T16:02:28.553Z,9.60
2019-01-11T16:03:28.494Z,9.60
2019-01-11T16:04:28.476Z,9.80
2019-01-11T16:05:28.444Z,11.00
2019-01-11T16:06:28.582Z,10.50
2019-01-11T16:07:28.384Z,13.30
2019-01-11T16:08:28.493Z,8.70
2019-01-11T16:09:28.336Z,9.60
2019-01-11T16:10:28.303Z,9.80
2019-01-11T16:11:28.416Z,9.20
2019-01-11T16:12:28.255Z,7.80
2019-01-11T16:13:28.325Z,7.80
2019-01-11T16:14:28.197Z,9.00
2019-01-11T16:15:28.165Z,9.60
2019-01-11T16:16:28.142Z,12.10
2019-01-11T16:17:28.245Z,7.40
2019-01-11T16:18:28.102Z,10.00
2019-01-11T16:19:28.164Z,10.30
2019-01-11T16:20:28.065Z,8.10
2019-01-11T16:21:28.004Z,8.50
2019-01-11T16:22:28.087Z,6.70
2019-01-11T16:23:27.965Z,9.60
2019-01-11T16:24:28.000Z,10.30
2019-01-11T16:25:27.895Z,8.80
2019-01-11T16:26:27.883Z,9.10
2019-01-11T16:27:27.926Z,8.00
2019-01-11T16:28:27.813Z,9.00
2019-01-11T16:29:27.826Z,8.70
2019-01-11T16:30:27.757Z,10.70
2019-01-11T16:31:27.724Z,7.10
2019-01-11T16:32:27.705Z,8.20
2019-01-11T16:33:27.814Z,11.70
2019-01-11T16:34:27.662Z,8.50
2019-01-11T16:35:27.727Z,9.30
2019-01-11T16:36:27.697Z,9.30
2019-01-11T16:37:27.576Z,7.80
2019-01-11T16:38:27.575Z,10.00
2019-01-11T16:39:27.506Z,8.50